BGTLCYLT

Guest
Details From BGTL - THULE AIR BASE
To CYLT - ALERT
Flight Number -
Tags decoded
Created
Modified
Stats Distance 377 nm / 698 km
Max Altitude 0 ft / 0 m
Waypoints 5
Social Downloads 1
Likes 0
Share VATSIM

Download

Looking for another format? Having issues loading an existing format? Contact us
Advertisement - Login to hide

Notes

Requested: BGTL THT W20 QQ 791002N0680002W 821514N0602916W 823003N0610002W LT CYLT Unmatched points: 791002N0680002W 821514N0602916W 823003N0610002W

Route

BGTL THT W20 QQ LT CYLT

ID Type Via Altitude Latitude Longitude Leg Dist Tot Dist Heading (true) Name
O BGTL APT - 0 ft / 0 m 76.53120˚ -68.70316˚ - 0 nm - THULE AIR BASE
THT VOR - 0 ft / 0 m 76.54242˚ -68.23922˚ 6 nm 6 nm 84° / 84° THULE VORTAC
QQ NDB W20 (AWY-HI) 0 ft / 0 m 77.47913˚ -69.32592˚ 58 nm 64 nm 346° / 345° QAANAAQ NDB
LT NDB - 0 ft / 0 m 82.52583˚ -62.21139˚ 311 nm 376 nm 10° / 17° ALERT NDB
O CYLT APT - 0 ft / 0 m 82.51778˚ -62.28056˚ 0 nm 376 nm 228° / 228° ALERT

Altitude Profile

Advertisement - Login to hide

Weather


0- 5 10 15 20 25 30 35+ Temperature / ° C

Clouds and Precipitation
Forecast for 2018-05-25 12:00 UTC. Updated 4 hours ago

Ground ~20,000 ft ~40,000 ft Winds

BGTL

Details ICAO BGTL (THU)
Name THULE AIR BASE
Region Greenland
Timezone America/Thule (UTC-3.0)
Stats Elevation 251 ft / 77 m (AMSL)
Location 76.531203° -68.703163°
Runways 1
Magnetic Variation 44.145° W

METAR

Not found

TAF

TAF AMD BGTL 251215Z 2512/2615 14012KT 9999 FEW015 BKN050 QNH2962INS WND VRB06KT AFT 2521 BECMG 2612/2613 33006KT 9999 FEW018 QNH2960INS TX00/2517Z TNM06/2609Z LAST NO AMDS AFT 2512 NEXT 2901

Decode

Departure Runways

ID Width Length Bearing (true) Bearing (mag) Surface Threshold Offset Overrun Length
08T 140 ft / 43 m 9,957 ft / 3,035 m 84.91° 129.05° Asphalt 0 ft / 0 m 233 ft / 71 m
26T 140 ft / 43 m 9,957 ft / 3,035 m 265.02° 309.16° Asphalt 0 ft / 0 m 233 ft / 71 m

CYLT

Details ICAO CYLT (YLT)
Name ALERT
Region Canada
Timezone Unknown (UTC+0.0)
Stats Elevation 100 ft / 30 m (AMSL)
Location 82.517778° -62.280555°
Runways 1
Magnetic Variation 49.223° W

METAR

CYLT 251500Z 34004KT 3SM -SN BR FEW008 SCT015 OVC025 M09/M11 A2996 RMK ST2SC2SC4 PCPN VRY LGT SLP149

Decode

TAF

TAF TAF CYLT 251315Z 2513/2601 34008KT 3SM -SN BR BKN008 OVC015 TEMPO 2513/2522 6SM -SN BR SCT008 BKN015 OVC025 FM252200 34005KT 6SM -SN BR BKN012 OVC030 RMK NXT FCST BY 251800Z

Decode

Destination Runways

ID Width Length Bearing (true) Bearing (mag) Surface Threshold Offset Overrun Length
05T 150 ft / 46 m 5,463 ft / 1,665 m 48.05° 97.27° Gravel 0 ft / 0 m 0 ft / 0 m
23T 150 ft / 46 m 5,463 ft / 1,665 m 228.13° 277.35° Gravel 0 ft / 0 m 0 ft / 0 m

Popular Alternatives